createdAt,value
2019-03-09T00:01:03.987Z,87.87
2019-03-09T00:02:12.043Z,88.16
2019-03-09T00:03:20.100Z,87.87
2019-03-09T00:04:28.163Z,88.92
2019-03-09T00:05:36.216Z,87.87
2019-03-09T00:06:44.274Z,87.12
2019-03-09T00:07:52.340Z,86.64
2019-03-09T00:09:00.402Z,86.93
2019-03-09T00:10:08.441Z,86.45
2019-03-09T00:11:16.516Z,87.87
2019-03-09T00:12:24.556Z,88.73
2019-03-09T00:13:32.627Z,88.25
2019-03-09T00:14:40.687Z,87.77
2019-03-09T00:15:48.748Z,92.61
2019-03-09T00:16:56.843Z,88.63
2019-03-09T00:18:04.869Z,87.59
2019-03-09T00:19:12.919Z,87.97
2019-03-09T00:20:20.991Z,85.69
2019-03-09T00:21:29.031Z,85.74
2019-03-09T00:22:37.093Z,86.26
2019-03-09T00:23:45.144Z,88.06
2019-03-09T00:24:53.216Z,89.58
2019-03-09T00:26:01.278Z,89.29
2019-03-09T00:27:09.300Z,87.77
2019-03-09T00:28:17.364Z,87.49
2019-03-09T00:29:25.447Z,87.73
2019-03-09T00:30:33.540Z,85.93
2019-03-09T00:31:41.583Z,87.63
2019-03-09T00:32:49.649Z,87.25
2019-03-09T00:33:57.668Z,88.87
2019-03-09T00:35:05.742Z,91.52
2019-03-09T00:36:13.794Z,90.67
2019-03-09T00:37:21.860Z,90.38
2019-03-09T00:38:29.926Z,89.91
2019-03-09T00:39:37.969Z,88.77
2019-03-09T00:40:46.033Z,90.10
2019-03-09T00:41:54.079Z,87.92
2019-03-09T00:43:02.139Z,87.82
2019-03-09T00:44:10.217Z,87.45
2019-03-09T00:45:18.252Z,88.87
2019-03-09T00:46:26.318Z,88.01
2019-03-09T00:47:34.382Z,86.30
2019-03-09T00:48:42.446Z,84.88
2019-03-09T00:49:50.526Z,85.64
2019-03-09T00:50:58.583Z,89.06
2019-03-09T00:52:06.623Z,88.68
2019-03-09T00:53:14.698Z,87.45
2019-03-09T00:54:22.754Z,87.54
2019-03-09T00:55:30.820Z,86.68
2019-03-09T00:56:38.862Z,86.40
2019-03-09T00:57:46.913Z,85.64
2019-03-09T00:58:54.966Z,85.07
2019-03-09T01:00:03.047Z,84.31
2019-03-09T01:01:11.080Z,86.21
2019-03-09T01:02:19.134Z,97.97
2019-03-09T01:03:27.196Z,89.91
2019-03-09T01:04:35.255Z,87.54
2019-03-09T01:05:43.320Z,89.91
2019-03-09T01:06:51.369Z,86.97
2019-03-09T01:07:59.623Z,86.49
2019-03-09T01:09:07.685Z,86.11
2019-03-09T01:10:15.783Z,86.40
2019-03-09T01:11:23.814Z,87.54
2019-03-09T01:12:31.864Z,83.46
2019-03-09T01:13:39.936Z,86.11
2019-03-09T01:14:47.988Z,85.64
2019-03-09T01:15:56.035Z,85.74
2019-03-09T01:17:04.103Z,85.45
2019-03-09T01:18:12.151Z,91.14
2019-03-09T01:19:20.215Z,85.07
2019-03-09T01:20:28.280Z,84.88
2019-03-09T01:21:36.325Z,84.12
2019-03-09T01:22:44.391Z,82.60
2019-03-09T01:23:52.457Z,83.55
2019-03-09T01:25:00.513Z,82.89
2019-03-09T01:26:08.558Z,81.66
2019-03-09T01:27:16.628Z,81.47
2019-03-09T01:28:24.695Z,81.56
2019-03-09T01:29:32.745Z,84.31
2019-03-09T01:30:40.811Z,88.96
2019-03-09T01:31:48.845Z,87.16
2019-03-09T01:32:56.915Z,83.65
2019-03-09T01:34:04.996Z,84.50
2019-03-09T01:35:13.040Z,83.17
2019-03-09T01:36:21.113Z,90.19
2019-03-09T01:37:29.141Z,85.74
2019-03-09T01:38:37.215Z,84.31
2019-03-09T01:39:45.275Z,84.31
2019-03-09T01:40:53.331Z,82.32
2019-03-09T01:42:01.404Z,83.46
2019-03-09T01:43:09.436Z,82.98
2019-03-09T01:44:17.506Z,82.70
2019-03-09T01:45:25.579Z,82.32
2019-03-09T01:46:33.632Z,81.27
2019-03-09T01:47:41.676Z,82.98
2019-03-09T01:48:52.360Z,87.82
2019-03-09T01:50:00.748Z,83.94
2019-03-09T01:51:08.484Z,83.08
2019-03-09T01:52:16.557Z,84.12
2019-03-09T01:53:24.602Z,83.74
2019-03-09T01:54:32.635Z,84.03
2019-03-09T01:55:40.702Z,83.27
2019-03-09T01:56:48.781Z,83.65
2019-03-09T01:57:56.829Z,85.55
2019-03-09T01:59:05.089Z,83.46
2019-03-09T02:00:13.202Z,83.08
2019-03-09T02:01:21.437Z,82.51
2019-03-09T02:02:29.776Z,86.49
2019-03-09T02:03:37.610Z,83.46
2019-03-09T02:04:45.687Z,82.79
2019-03-09T02:05:53.946Z,81.27
2019-03-09T02:07:01.532Z,82.13
2019-03-09T02:08:09.935Z,81.47
2019-03-09T02:09:17.406Z,81.66
2019-03-09T02:10:25.741Z,81.85
2019-03-09T02:11:33.711Z,81.56
2019-03-09T02:12:41.858Z,84.03
2019-03-09T02:13:49.860Z,81.47
2019-03-09T02:14:57.707Z,81.56
2019-03-09T02:16:05.768Z,81.75
2019-03-09T02:17:14.063Z,80.33
2019-03-09T02:18:22.128Z,81.56
2019-03-09T02:19:30.165Z,80.71
2019-03-09T02:20:38.025Z,79.76
2019-03-09T02:21:46.030Z,80.29
2019-03-09T02:22:54.112Z,79.57
2019-03-09T02:24:02.196Z,79.91
2019-03-09T02:25:10.260Z,78.24
2019-03-09T02:26:18.328Z,78.77
2019-03-09T02:27:26.357Z,77.92
2019-03-09T02:28:34.680Z,76.68
2019-03-09T02:29:42.732Z,76.59
2019-03-09T02:30:51.129Z,76.97
2019-03-09T02:31:59.170Z,77.16
2019-03-09T02:33:06.975Z,77.25
2019-03-09T02:34:14.753Z,76.87
2019-03-09T02:35:23.248Z,77.45
2019-03-09T02:36:31.518Z,76.12
2019-03-09T02:37:39.463Z,74.98
2019-03-09T02:38:47.405Z,75.17
2019-03-09T02:39:55.522Z,74.51
2019-03-09T02:41:03.636Z,74.79
2019-03-09T02:42:11.493Z,73.65
2019-03-09T02:43:19.736Z,73.56
2019-03-09T02:44:27.220Z,75.64
2019-03-09T02:45:35.351Z,73.84
2019-03-09T02:46:43.734Z,75.45
2019-03-09T02:47:52.036Z,75.55
2019-03-09T02:48:59.944Z,77.73
2019-03-09T02:50:07.601Z,76.31
2019-03-09T02:51:15.554Z,76.44
2019-03-09T02:52:23.626Z,76.54
2019-03-09T02:53:31.676Z,79.10
2019-03-09T02:54:39.726Z,84.59
2019-03-09T02:55:47.801Z,82.60
2019-03-09T02:56:55.859Z,81.18
2019-03-09T02:58:03.920Z,84.98
2019-03-09T02:59:11.991Z,81.27
2019-03-09T03:00:20.027Z,84.78
2019-03-09T03:01:28.086Z,90.48
2019-03-09T03:02:36.129Z,86.87
2019-03-09T03:03:44.206Z,88.01
2019-03-09T03:04:52.261Z,89.34
2019-03-09T03:06:00.316Z,85.45
2019-03-09T03:07:08.387Z,88.77
2019-03-09T03:08:16.799Z,87.35
2019-03-09T03:09:24.501Z,86.30
2019-03-09T03:10:33.155Z,88.77
2019-03-09T03:11:40.726Z,86.30
2019-03-09T03:12:48.664Z,91.71
2019-03-09T03:13:56.724Z,91.71
2019-03-09T03:15:04.798Z,92.28
2019-03-09T03:16:12.819Z,94.46
2019-03-09T03:17:20.894Z,94.13
2019-03-09T03:18:28.941Z,91.66
2019-03-09T03:19:37.029Z,91.61
2019-03-09T03:20:45.090Z,94.37
2019-03-09T03:21:53.140Z,93.80
2019-03-09T03:23:01.216Z,95.46
2019-03-09T03:24:09.222Z,91.80
2019-03-09T03:25:17.307Z,94.65
2019-03-09T03:26:25.368Z,94.93
2019-03-09T03:27:33.422Z,95.27
2019-03-09T03:28:41.489Z,93.37
2019-03-09T03:29:49.543Z,94.51
2019-03-09T03:30:57.604Z,92.42
2019-03-09T03:32:05.683Z,92.80
2019-03-09T03:33:13.720Z,93.56
2019-03-09T03:34:21.789Z,94.08
2019-03-09T03:35:29.829Z,93.46
2019-03-09T03:36:37.886Z,91.66
2019-03-09T03:37:45.962Z,94.51
2019-03-09T03:38:54.018Z,99.26
2019-03-09T03:40:02.142Z,95.07
2019-03-09T03:41:10.172Z,93.94
2019-03-09T03:42:18.241Z,94.13
2019-03-09T03:43:26.252Z,91.66
2019-03-09T03:44:34.314Z,96.12
2019-03-09T03:45:42.361Z,96.31
2019-03-09T03:46:50.421Z,96.41
2019-03-09T03:47:58.467Z,93.56
2019-03-09T03:49:06.527Z,95.27
2019-03-09T03:50:14.618Z,94.70
2019-03-09T03:51:22.666Z,95.36
2019-03-09T03:52:30.746Z,95.46
2019-03-09T03:53:38.765Z,99.99
2019-03-09T03:54:46.819Z,96.03
2019-03-09T03:55:54.889Z,95.46
2019-03-09T03:57:02.942Z,96.22
2019-03-09T03:58:11.018Z,98.68
2019-03-09T03:59:19.033Z,99.16
2019-03-09T04:00:27.118Z,97.83
2019-03-09T04:01:35.180Z,95.46
2019-03-09T04:02:43.226Z,97.83
2019-03-09T04:03:51.292Z,97.92
2019-03-09T04:04:59.324Z,97.83
2019-03-09T04:06:07.414Z,99.99
2019-03-09T04:07:15.504Z,97.83
2019-03-09T04:08:23.558Z,97.07
2019-03-09T04:09:31.606Z,99.99
2019-03-09T04:10:39.663Z,99.35
2019-03-09T04:11:47.703Z,99.26
2019-03-09T04:12:55.779Z,99.99
2019-03-09T04:14:03.821Z,99.99
2019-03-09T04:15:11.879Z,99.54
2019-03-09T04:16:19.939Z,99.99
2019-03-09T04:17:28.107Z,98.49
2019-03-09T04:18:36.050Z,99.99
2019-03-09T04:19:44.108Z,99.99
2019-03-09T04:20:52.171Z,99.99
2019-03-09T04:22:00.239Z,99.99
2019-03-09T04:23:08.277Z,99.99
2019-03-09T04:24:16.347Z,99.99
2019-03-09T04:25:24.395Z,99.99
2019-03-09T04:26:32.459Z,99.99
2019-03-09T04:27:40.536Z,99.99
2019-03-09T04:28:48.561Z,99.99
2019-03-09T04:29:56.639Z,99.99
2019-03-09T04:31:04.719Z,99.99
2019-03-09T04:32:12.763Z,99.99
2019-03-09T04:33:20.815Z,99.99
2019-03-09T04:34:28.865Z,99.99
2019-03-09T04:35:36.937Z,99.99
2019-03-09T04:36:44.995Z,99.99
2019-03-09T04:37:53.058Z,99.99
2019-03-09T04:39:01.108Z,99.99
2019-03-09T04:40:09.155Z,99.99
2019-03-09T04:41:17.230Z,99.99
2019-03-09T04:42:25.289Z,99.99
2019-03-09T04:43:33.341Z,99.99
2019-03-09T04:44:41.418Z,99.99
2019-03-09T04:45:49.475Z,99.99
2019-03-09T04:46:57.514Z,99.99
2019-03-09T04:48:05.575Z,99.99
2019-03-09T04:49:13.627Z,99.99
2019-03-09T04:50:21.704Z,99.99
2019-03-09T04:51:29.760Z,99.99
2019-03-09T04:52:37.812Z,99.99
2019-03-09T04:53:45.880Z,99.99
2019-03-09T04:54:53.928Z,99.99
2019-03-09T04:56:02.008Z,99.99
2019-03-09T04:57:10.058Z,99.99
2019-03-09T04:58:18.117Z,99.99
2019-03-09T04:59:26.170Z,99.99
2019-03-09T05:00:34.219Z,99.99
2019-03-09T05:01:42.298Z,99.99
2019-03-09T05:02:50.352Z,99.99
2019-03-09T05:03:58.391Z,99.99
2019-03-09T05:05:06.471Z,99.99
2019-03-09T05:06:14.531Z,99.99
2019-03-09T05:07:22.594Z,99.99
2019-03-09T05:08:30.655Z,99.99
2019-03-09T05:09:38.682Z,99.99
2019-03-09T05:10:46.795Z,99.99
2019-03-09T05:11:54.817Z,99.99
2019-03-09T05:13:02.895Z,99.99
2019-03-09T05:14:10.937Z,99.99
2019-03-09T05:15:18.984Z,99.99
2019-03-09T05:16:27.057Z,99.99
2019-03-09T05:17:35.140Z,99.99
2019-03-09T05:18:43.173Z,99.99
2019-03-09T05:19:51.237Z,99.99
2019-03-09T05:20:59.261Z,99.99
2019-03-09T05:22:07.351Z,99.99
2019-03-09T05:23:15.415Z,99.99
2019-03-09T05:24:23.467Z,99.99
2019-03-09T05:25:31.534Z,99.99
2019-03-09T05:26:39.582Z,99.99
2019-03-09T05:27:47.650Z,99.99
2019-03-09T05:28:55.708Z,99.99
2019-03-09T05:30:03.771Z,99.99
2019-03-09T05:31:11.831Z,99.99
2019-03-09T05:32:19.889Z,99.99
2019-03-09T05:33:27.946Z,99.99
2019-03-09T05:34:36.001Z,99.99
2019-03-09T05:35:44.102Z,99.99
2019-03-09T05:36:52.143Z,99.99
2019-03-09T05:38:00.169Z,99.99
2019-03-09T05:39:08.236Z,99.99
2019-03-09T05:40:16.293Z,99.99
2019-03-09T05:41:24.363Z,99.99
2019-03-09T05:42:32.437Z,99.99
2019-03-09T05:43:40.488Z,99.99
2019-03-09T05:44:48.672Z,99.99
2019-03-09T05:45:56.601Z,99.99
2019-03-09T05:47:04.663Z,99.99
2019-03-09T05:48:12.714Z,99.99
2019-03-09T05:49:20.768Z,99.99
2019-03-09T05:50:29.451Z,99.99
2019-03-09T05:51:36.900Z,99.99
2019-03-09T05:52:45.002Z,99.99
2019-03-09T05:53:53.205Z,99.99
2019-03-09T05:55:01.079Z,99.99
2019-03-09T05:56:09.380Z,99.99
2019-03-09T05:57:17.831Z,99.99
2019-03-09T05:58:25.247Z,99.99
2019-03-09T05:59:33.295Z,99.99
2019-03-09T06:00:41.390Z,99.99
2019-03-09T06:01:50.891Z,99.99
2019-03-09T06:02:57.903Z,99.99
2019-03-09T06:04:05.778Z,99.99
2019-03-09T06:05:13.664Z,99.99
2019-03-09T06:06:21.673Z,99.99
2019-03-09T06:07:29.726Z,99.99
2019-03-09T06:08:37.796Z,99.99
2019-03-09T06:09:45.857Z,99.99
2019-03-09T06:10:53.899Z,99.99
2019-03-09T06:12:01.975Z,99.99
2019-03-09T06:13:10.027Z,99.99
2019-03-09T06:14:18.087Z,99.99
2019-03-09T06:15:26.155Z,99.99
2019-03-09T06:16:34.223Z,99.99
2019-03-09T06:17:42.272Z,99.99
2019-03-09T06:18:50.326Z,99.99
2019-03-09T06:19:58.381Z,99.99
2019-03-09T06:21:06.445Z,99.99
2019-03-09T06:22:14.510Z,99.99
2019-03-09T06:23:22.575Z,99.99
2019-03-09T06:24:30.611Z,99.99
2019-03-09T06:25:38.964Z,99.99
2019-03-09T06:26:46.751Z,99.99
2019-03-09T06:27:54.806Z,99.99
2019-03-09T06:29:02.861Z,99.99
2019-03-09T06:30:10.918Z,99.99
2019-03-09T06:31:18.964Z,99.99
2019-03-09T06:32:27.050Z,99.99
2019-03-09T06:33:35.384Z,99.99
2019-03-09T06:34:43.262Z,99.99
2019-03-09T06:35:51.576Z,99.99
2019-03-09T06:36:59.270Z,99.99
2019-03-09T06:38:07.336Z,99.99
2019-03-09T06:39:15.395Z,99.99
2019-03-09T06:40:23.495Z,99.99
2019-03-09T06:41:31.557Z,99.99
2019-03-09T06:42:39.817Z,99.99
2019-03-09T06:43:47.880Z,99.99
2019-03-09T06:44:55.849Z,99.99
2019-03-09T06:46:03.771Z,99.99
2019-03-09T06:47:11.819Z,99.99
2019-03-09T06:48:19.874Z,99.99
2019-03-09T06:49:27.949Z,99.99
2019-03-09T06:50:35.997Z,99.99
2019-03-09T06:51:44.058Z,99.99
2019-03-09T06:52:52.102Z,99.99
2019-03-09T06:54:00.184Z,99.99
2019-03-09T06:55:08.227Z,99.99
2019-03-09T06:56:16.311Z,99.99
2019-03-09T06:57:24.360Z,99.99
2019-03-09T06:58:32.407Z,99.99
2019-03-09T06:59:40.488Z,99.99
2019-03-09T07:00:48.760Z,99.99
2019-03-09T07:01:56.597Z,99.99
2019-03-09T07:03:04.688Z,99.99
2019-03-09T07:04:12.854Z,99.99
2019-03-09T07:05:20.809Z,99.99
2019-03-09T07:06:29.096Z,99.99
2019-03-09T07:07:37.115Z,99.99
2019-03-09T07:08:44.957Z,99.99
2019-03-09T07:09:53.019Z,99.99
2019-03-09T07:11:01.337Z,99.99
2019-03-09T07:12:09.126Z,99.99
2019-03-09T07:13:17.196Z,99.99
2019-03-09T07:14:25.255Z,99.99
2019-03-09T07:15:33.641Z,99.99
2019-03-09T07:16:42.040Z,99.99
2019-03-09T07:17:49.487Z,99.99
2019-03-09T07:18:57.685Z,99.99
2019-03-09T07:20:12.456Z,99.99
2019-03-09T07:21:13.673Z,99.99
2019-03-09T07:22:22.352Z,99.99
2019-03-09T07:23:30.338Z,99.99
2019-03-09T07:24:38.072Z,99.99
2019-03-09T07:25:46.240Z,99.99
2019-03-09T07:26:53.911Z,99.99
2019-03-09T07:28:02.267Z,99.99
2019-03-09T07:29:10.327Z,99.99
2019-03-09T07:30:18.346Z,99.99
2019-03-09T07:31:26.170Z,99.99
2019-03-09T07:32:34.540Z,99.99
2019-03-09T07:33:42.417Z,99.99
2019-03-09T07:34:50.638Z,99.99
2019-03-09T07:35:58.394Z,99.99
2019-03-09T07:37:06.938Z,99.99
2019-03-09T07:38:14.624Z,99.99
2019-03-09T07:39:22.591Z,99.99
2019-03-09T07:40:30.645Z,99.99
2019-03-09T07:41:38.693Z,99.99
2019-03-09T07:42:46.766Z,99.99
2019-03-09T07:43:54.826Z,99.99
2019-03-09T07:45:02.878Z,99.99
2019-03-09T07:46:11.374Z,99.99
2019-03-09T07:47:19.042Z,99.99
2019-03-09T07:48:27.058Z,99.99
2019-03-09T07:49:35.118Z,99.99
2019-03-09T07:50:43.202Z,99.99
2019-03-09T07:51:51.269Z,99.99
2019-03-09T07:52:59.290Z,99.99
2019-03-09T07:54:07.831Z,99.99
2019-03-09T07:55:15.436Z,99.99
2019-03-09T07:56:23.500Z,99.99
2019-03-09T07:57:32.696Z,99.99
2019-03-09T07:58:39.650Z,99.99
2019-03-09T07:59:47.672Z,99.99
2019-03-09T08:00:55.735Z,99.99
2019-03-09T08:02:03.789Z,99.99
2019-03-09T08:03:13.412Z,99.99
2019-03-09T08:04:20.368Z,99.99
2019-03-09T08:05:27.975Z,99.99
2019-03-09T08:06:36.037Z,99.99
2019-03-09T08:07:44.097Z,99.99
2019-03-09T08:08:52.159Z,99.99
2019-03-09T08:10:00.366Z,99.99
2019-03-09T08:11:08.269Z,99.99
2019-03-09T08:12:16.329Z,99.99
2019-03-09T08:13:24.716Z,99.99
2019-03-09T08:14:32.446Z,99.99
2019-03-09T08:15:40.525Z,99.99
2019-03-09T08:16:48.593Z,99.99
2019-03-09T08:17:56.666Z,99.99
2019-03-09T08:19:04.686Z,99.99
2019-03-09T08:20:12.755Z,99.99
2019-03-09T08:21:20.825Z,99.99
2019-03-09T08:22:28.913Z,99.99
2019-03-09T08:23:36.940Z,99.99
2019-03-09T08:24:45.001Z,99.99
2019-03-09T08:25:53.079Z,99.99
2019-03-09T08:27:01.136Z,99.99
2019-03-09T08:28:09.191Z,99.99
2019-03-09T08:29:17.251Z,99.99
2019-03-09T08:30:25.297Z,99.99
2019-03-09T08:31:33.373Z,99.99
2019-03-09T08:32:41.467Z,99.99
2019-03-09T08:33:49.471Z,99.99
2019-03-09T08:34:57.973Z,99.99
2019-03-09T08:36:05.621Z,99.99
2019-03-09T08:37:13.688Z,99.99
2019-03-09T08:38:21.749Z,99.99
2019-03-09T08:39:29.786Z,99.99
2019-03-09T08:40:37.848Z,99.99
2019-03-09T08:41:45.928Z,99.99
2019-03-09T08:42:54.003Z,99.99
2019-03-09T08:44:02.094Z,99.99
2019-03-09T08:45:10.141Z,99.99
2019-03-09T08:46:18.171Z,99.99
2019-03-09T08:47:26.217Z,99.99
2019-03-09T08:48:34.279Z,99.99
2019-03-09T08:49:42.378Z,99.99
2019-03-09T08:50:50.447Z,99.99
2019-03-09T08:51:58.486Z,99.99
2019-03-09T08:53:06.535Z,99.99
2019-03-09T08:54:14.619Z,99.99
2019-03-09T08:55:22.754Z,99.99
2019-03-09T08:56:30.707Z,99.99
2019-03-09T08:57:38.740Z,99.99
2019-03-09T08:58:46.994Z,99.99
2019-03-09T08:59:54.902Z,99.99
2019-03-09T09:01:03.030Z,99.99
2019-03-09T09:02:11.028Z,99.99
2019-03-09T09:03:19.055Z,99.99
2019-03-09T09:04:27.145Z,99.99
2019-03-09T09:05:35.215Z,99.99
2019-03-09T09:06:43.281Z,99.99
2019-03-09T09:07:51.328Z,99.99
2019-03-09T09:08:59.357Z,99.99
2019-03-09T09:10:07.459Z,99.99
2019-03-09T09:11:15.510Z,99.99
2019-03-09T09:12:23.574Z,99.99
2019-03-09T09:13:31.629Z,99.99
2019-03-09T09:14:39.686Z,99.99
2019-03-09T09:15:47.749Z,99.99
2019-03-09T09:16:55.827Z,99.99
2019-03-09T09:18:03.888Z,99.99
2019-03-09T09:19:11.938Z,99.99
2019-03-09T09:20:19.989Z,99.99
2019-03-09T09:21:28.261Z,99.99
2019-03-09T09:22:36.131Z,99.99
2019-03-09T09:23:44.197Z,99.99
2019-03-09T09:24:52.236Z,99.99
2019-03-09T09:26:00.310Z,99.99
2019-03-09T09:27:08.363Z,99.99
2019-03-09T09:28:16.456Z,99.99
